Home   Weather   Canada   Gravenhurst   Past weeks
Flag for Canada

Past Weather in Gravenhurst, Ontario, Canada — Yesterday and Last 2 Weeks

Currently: 68 °F. Overcast. (Weather station: Muskoka, Canada). See more current weather

Past Weather in Gravenhurst — Graph

°F

Gravenhurst Temperature Yesterday

Maximum temperature yesterday: 77 °F (at 4:00 pm)
Minimum temperature yesterday: 64 °F (at 11:37 pm)
Average temperature yesterday: 72 °F

High & Low Weather Summary for the Past Weeks

 TemperatureHumidityPressure
High88 °F (Aug 6, 3:00 pm)100% (Jul 27, 1:00 am)30.19 "Hg (Jul 27, 1:00 am)
Low46 °F (Jul 27, 5:00 am)41% (Jul 26, 5:00 pm)29.68 "Hg (Aug 1, 6:54 pm)
Average68 °F82%29.93 "Hg
* Reported Jul 25 5:00 pm — Aug 9 5:00 pm, Gravenhurst. Weather by CustomWeather, © 2022

Note: Actual official high and low records may vary slightly from our data, if they occured in-between our weather recording intervals... More about our weather records

Gravenhurst Weather History for the Previous 24 Hours

Scroll right to see more
 ConditionsComfort  
Time TempWeatherWind HumidityBarometerVisibility
5:00 pm
Tue, Aug 9
68 °FOvercast.2 mph69%30.05 "Hg9 mi
4:00 pm66 °FOvercast.3 mph73%30.06 "Hg9 mi
3:00 pm66 °FOvercast.8 mph73%30.06 "Hg9 mi
2:14 pm64 °FMostly cloudy.3 mph78%30.06 "Hg9 mi
1:37 pm64 °FMostly cloudy.7 mph78%30.06 "Hg9 mi
1:14 pm64 °FOvercast.3 mph73%30.06 "Hg9 mi
1:00 pm64 °FOvercast.2 mph73%30.06 "Hg9 mi
12:00 pm63 °FOvercast.5 mph77%30.05 "Hg9 mi
11:00 am63 °FOvercast.2 mph77%30.04 "Hg9 mi
10:00 am61 °FOvercast.7 mph83%30.03 "Hg9 mi
9:00 am61 °FOvercast.7 mph83%30.02 "Hg9 mi
8:00 am59 °FOvercast.6 mph94%29.99 "Hg9 mi
7:00 am59 °FOvercast.8 mph94%29.97 "Hg9 mi
6:19 am59 °FOvercast.8 mph94%29.96 "Hg9 mi
6:00 am59 °FLow clouds.6 mph94%29.94 "Hg9 mi
5:38 am59 °FMostly cloudy.8 mph94%29.94 "Hg9 mi
5:00 am59 °FLow clouds.8 mph94%29.91 "Hg9 mi
4:26 am59 °FMostly cloudy.10 mph94%29.91 "Hg9 mi
4:00 am59 °FLow clouds.12 mph100%29.90 "Hg9 mi
3:34 am61 °FLow clouds.12 mph94%29.90 "Hg9 mi
3:07 am61 °FLow clouds.9 mph94%29.89 "Hg7 mi
2:56 am61 °FFog.12 mph94%29.89 "Hg4 mi
2:33 am61 °FFog.10 mph94%29.88 "Hg5 mi
2:20 am61 °FFog.10 mph94%29.88 "Hg6 mi
1:53 am61 °FFog.8 mph100%29.87 "Hg5 mi
1:00 am63 °FLow clouds.12 mph94%29.85 "Hg9 mi
12:00 am64 °FMostly cloudy.13 mph94%29.83 "Hg9 mi
11:51 pm
Mon, Aug 8
64 °FLow clouds.10 mph94%29.82 "Hg7 mi
11:37 pm64 °FFog.12 mph94%29.81 "Hg2 mi
11:00 pm66 °FLight rain. Fog.10 mph94%29.80 "Hg1 mi
10:35 pm66 °FLight rain. Fog.12 mph100%29.79 "Hg1 mi
10:22 pm68 °FLight rain. Fog.12 mph94%29.78 "Hg2 mi
10:00 pm68 °FMostly cloudy.5 mph100%29.78 "Hg9 mi
9:24 pm70 °FOvercast.8 mph94%29.76 "Hg9 mi
9:03 pm70 °FLight rain. Fog.9 mph100%29.75 "Hg4 mi
7:40 pm75 °FMostly cloudy.7 mph94%29.72 "Hg9 mi
7:17 pm75 °FThunderstorms. Cloudy.5 mph94%29.72 "Hg9 mi
7:01 pm75 °FHeavy rain. Fog.6 mph94%29.72 "Hg4 mi
6:23 pm75 °FLight rain. Mostly cloudy.5 mph94%29.72 "Hg9 mi
Weather by CustomWeather, © 2022

See weather overview